sensor_id;sensor_type;location;lat;lon;timestamp;pressure;altitude;pressure_sealevel;temperature;humidity
15405;BME280;7801;48.124;11.590;2023-02-19T00:02:05;95872.56;;;11.68;71.58
15405;BME280;7801;48.124;11.590;2023-02-19T00:04:30;95875.22;;;11.68;71.77
15405;BME280;7801;48.124;11.590;2023-02-19T00:06:55;95874.91;;;11.70;71.49
15405;BME280;7801;48.124;11.590;2023-02-19T00:09:21;95869.97;;;11.63;71.72
15405;BME280;7801;48.124;11.590;2023-02-19T00:11:46;95868.19;;;11.59;71.82
15405;BME280;7801;48.124;11.590;2023-02-19T00:14:19;95856.53;;;11.74;71.57
15405;BME280;7801;48.124;11.590;2023-02-19T00:16:45;95864.06;;;11.66;71.77
15405;BME280;7801;48.124;11.590;2023-02-19T00:19:13;95862.78;;;11.64;71.68
15405;BME280;7801;48.124;11.590;2023-02-19T00:21:39;95864.72;;;11.58;72.20
15405;BME280;7801;48.124;11.590;2023-02-19T00:24:05;95852.00;;;11.55;72.02
15405;BME280;7801;48.124;11.590;2023-02-19T00:26:32;95850.38;;;11.59;72.10
15405;BME280;7801;48.124;11.590;2023-02-19T00:28:58;95851.44;;;11.58;72.39
15405;BME280;7801;48.124;11.590;2023-02-19T00:31:27;95853.03;;;11.59;72.56
15405;BME280;7801;48.124;11.590;2023-02-19T00:33:55;95855.16;;;11.57;72.46
15405;BME280;7801;48.124;11.590;2023-02-19T00:36:20;95844.66;;;11.47;72.86
15405;BME280;7801;48.124;11.590;2023-02-19T00:38:46;95853.13;;;11.49;73.05
15405;BME280;7801;48.124;11.590;2023-02-19T00:41:13;95846.63;;;11.60;72.33
15405;BME280;7801;48.124;11.590;2023-02-19T00:44:07;95847.72;;;11.59;72.26
15405;BME280;7801;48.124;11.590;2023-02-19T00:46:41;95853.03;;;11.59;72.49
15405;BME280;7801;48.124;11.590;2023-02-19T00:49:09;95840.81;;;11.58;72.28
15405;BME280;7801;48.124;11.590;2023-02-19T00:51:38;95839.56;;;11.51;72.49
15405;BME280;7801;48.124;11.590;2023-02-19T00:54:04;95841.66;;;11.54;72.45
15405;BME280;7801;48.124;11.590;2023-02-19T00:56:29;95844.09;;;11.50;72.65
15405;BME280;7801;48.124;11.590;2023-02-19T00:58:55;95840.13;;;11.48;72.79
15405;BME280;7801;48.124;11.590;2023-02-19T01:01:20;95832.44;;;11.46;73.01
15405;BME280;7801;48.124;11.590;2023-02-19T01:03:46;95836.00;;;11.60;72.31
15405;BME280;7801;48.124;11.590;2023-02-19T01:06:13;95827.66;;;11.48;72.76
15405;BME280;7801;48.124;11.590;2023-02-19T01:08:39;95828.31;;;11.40;73.16
15405;BME280;7801;48.124;11.590;2023-02-19T01:11:06;95825.94;;;11.39;73.08
15405;BME280;7801;48.124;11.590;2023-02-19T01:13:32;95829.88;;;11.41;73.21
15405;BME280;7801;48.124;11.590;2023-02-19T01:16:05;95829.88;;;11.41;73.45
15405;BME280;7801;48.124;11.590;2023-02-19T01:18:31;95820.75;;;11.47;73.22
15405;BME280;7801;48.124;11.590;2023-02-19T01:20:56;95828.88;;;11.56;73.21
15405;BME280;7801;48.124;11.590;2023-02-19T01:23:22;95818.88;;;11.48;73.41
15405;BME280;7801;48.124;11.590;2023-02-19T01:25:47;95820.38;;;11.35;74.21
15405;BME280;7801;48.124;11.590;2023-02-19T01:28:12;95812.56;;;11.44;73.93
15405;BME280;7801;48.124;11.590;2023-02-19T01:30:38;95806.44;;;11.43;74.02
15405;BME280;7801;48.124;11.590;2023-02-19T01:33:05;95808.41;;;11.38;74.07
15405;BME280;7801;48.124;11.590;2023-02-19T01:35:30;95799.28;;;11.44;73.71
15405;BME280;7801;48.124;11.590;2023-02-19T01:37:56;95805.47;;;11.39;74.02
15405;BME280;7801;48.124;11.590;2023-02-19T01:40:21;95801.78;;;11.35;74.15
15405;BME280;7801;48.124;11.590;2023-02-19T01:42:47;95788.38;;;11.45;74.06
15405;BME280;7801;48.124;11.590;2023-02-19T01:47:43;95799.66;;;11.37;73.78
15405;BME280;7801;48.124;11.590;2023-02-19T01:50:08;95799.25;;;11.25;74.32
15405;BME280;7801;48.124;11.590;2023-02-19T01:52:35;95800.22;;;11.34;74.53
15405;BME280;7801;48.124;11.590;2023-02-19T01:55:02;95786.13;;;11.33;73.94
15405;BME280;7801;48.124;11.590;2023-02-19T01:57:32;95790.50;;;11.43;73.52
15405;BME280;7801;48.124;11.590;2023-02-19T02:00:09;95785.13;;;11.29;73.92
15405;BME280;7801;48.124;11.590;2023-02-19T02:02:35;95790.03;;;11.41;74.28
15405;BME280;7801;48.124;11.590;2023-02-19T02:05:02;95780.47;;;11.40;73.79
15405;BME280;7801;48.124;11.590;2023-02-19T02:07:27;95774.94;;;11.36;74.19
15405;BME280;7801;48.124;11.590;2023-02-19T02:10:11;95774.72;;;11.33;74.06
15405;BME280;7801;48.124;11.590;2023-02-19T02:12:52;95781.19;;;11.27;75.00
15405;BME280;7801;48.124;11.590;2023-02-19T02:15:22;95770.72;;;11.35;75.53
15405;BME280;7801;48.124;11.590;2023-02-19T02:18:04;95774.78;;;11.28;76.58
15405;BME280;7801;48.124;11.590;2023-02-19T02:26:38;95777.38;;;11.14;80.43
15405;BME280;7801;48.124;11.590;2023-02-19T02:32:14;95773.84;;;10.76;83.80
15405;BME280;7801;48.124;11.590;2023-02-19T02:34:52;95772.78;;;10.77;83.67
15405;BME280;7801;48.124;11.590;2023-02-19T02:37:18;95769.56;;;10.80;84.71
15405;BME280;7801;48.124;11.590;2023-02-19T02:39:45;95768.81;;;10.75;85.22
15405;BME280;7801;48.124;11.590;2023-02-19T02:42:11;95765.72;;;10.67;86.11
15405;BME280;7801;48.124;11.590;2023-02-19T02:44:52;95770.44;;;10.71;86.16
15405;BME280;7801;48.124;11.590;2023-02-19T02:47:41;95766.62;;;10.58;86.93
15405;BME280;7801;48.124;11.590;2023-02-19T02:50:16;95758.75;;;10.48;88.76
15405;BME280;7801;48.124;11.590;2023-02-19T02:52:45;95756.22;;;10.38;90.14
15405;BME280;7801;48.124;11.590;2023-02-19T02:55:37;95762.53;;;10.42;89.00
15405;BME280;7801;48.124;11.590;2023-02-19T02:58:06;95748.87;;;10.29;89.68
15405;BME280;7801;48.124;11.590;2023-02-19T03:00:32;95745.66;;;10.32;90.47
15405;BME280;7801;48.124;11.590;2023-02-19T03:03:20;95739.38;;;10.23;91.22
15405;BME280;7801;48.124;11.590;2023-02-19T03:05:48;95744.19;;;10.16;91.07
15405;BME280;7801;48.124;11.590;2023-02-19T03:08:37;95726.91;;;9.95;91.79
15405;BME280;7801;48.124;11.590;2023-02-19T03:11:06;95728.91;;;10.08;91.46
15405;BME280;7801;48.124;11.590;2023-02-19T03:14:05;95719.50;;;9.92;92.16
15405;BME280;7801;48.124;11.590;2023-02-19T03:16:54;95724.87;;;9.82;93.49
15405;BME280;7801;48.124;11.590;2023-02-19T03:19:44;95725.87;;;9.91;93.45
15405;BME280;7801;48.124;11.590;2023-02-19T03:22:14;95738.88;;;9.87;93.37
15405;BME280;7801;48.124;11.590;2023-02-19T03:24:48;95732.78;;;9.87;93.49
15405;BME280;7801;48.124;11.590;2023-02-19T03:27:35;95729.94;;;9.78;93.97
15405;BME280;7801;48.124;11.590;2023-02-19T03:30:08;95727.34;;;9.73;94.24
15405;BME280;7801;48.124;11.590;2023-02-19T03:32:45;95730.25;;;9.77;94.02
15405;BME280;7801;48.124;11.590;2023-02-19T03:35:21;95729.78;;;9.64;94.43
15405;BME280;7801;48.124;11.590;2023-02-19T03:38:02;95729.28;;;9.62;94.55
15405;BME280;7801;48.124;11.590;2023-02-19T03:40:29;95721.88;;;9.59;96.12
15405;BME280;7801;48.124;11.590;2023-02-19T03:45:52;95727.72;;;9.56;97.43
15405;BME280;7801;48.124;11.590;2023-02-19T03:48:28;95734.19;;;9.40;98.48
15405;BME280;7801;48.124;11.590;2023-02-19T03:53:46;95729.16;;;9.44;98.24
15405;BME280;7801;48.124;11.590;2023-02-19T03:56:35;95717.78;;;9.43;98.80
15405;BME280;7801;48.124;11.590;2023-02-19T03:59:10;95724.41;;;9.41;98.73
15405;BME280;7801;48.124;11.590;2023-02-19T04:01:41;95728.09;;;9.45;98.79
15405;BME280;7801;48.124;11.590;2023-02-19T04:04:19;95725.72;;;9.43;98.57
15405;BME280;7801;48.124;11.590;2023-02-19T04:06:52;95722.75;;;9.50;98.39
15405;BME280;7801;48.124;11.590;2023-02-19T04:09:20;95735.81;;;9.36;99.32
15405;BME280;7801;48.124;11.590;2023-02-19T04:11:49;95715.41;;;9.42;98.93
15405;BME280;7801;48.124;11.590;2023-02-19T04:14:19;95714.34;;;9.38;99.02
15405;BME280;7801;48.124;11.590;2023-02-19T04:16:51;95715.94;;;9.39;98.99
15405;BME280;7801;48.124;11.590;2023-02-19T04:19:21;95720.16;;;9.40;98.76
15405;BME280;7801;48.124;11.590;2023-02-19T04:21:50;95713.09;;;9.30;98.71
15405;BME280;7801;48.124;11.590;2023-02-19T04:24:38;95709.97;;;9.23;98.58
15405;BME280;7801;48.124;11.590;2023-02-19T04:27:05;95704.69;;;9.18;98.85
15405;BME280;7801;48.124;11.590;2023-02-19T04:29:32;95696.72;;;9.23;98.81
15405;BME280;7801;48.124;11.590;2023-02-19T04:31:58;95689.56;;;9.23;98.02
15405;BME280;7801;48.124;11.590;2023-02-19T04:34:23;95700.53;;;9.12;98.12
15405;BME280;7801;48.124;11.590;2023-02-19T04:36:48;95703.97;;;9.07;98.65
15405;BME280;7801;48.124;11.590;2023-02-19T04:39:14;95706.53;;;9.17;98.20
15405;BME280;7801;48.124;11.590;2023-02-19T04:41:39;95711.03;;;9.22;97.59
15405;BME280;7801;48.124;11.590;2023-02-19T04:44:04;95704.16;;;9.16;98.04
15405;BME280;7801;48.124;11.590;2023-02-19T04:46:30;95708.41;;;9.17;97.89
15405;BME280;7801;48.124;11.590;2023-02-19T04:48:55;95717.41;;;9.16;97.31
15405;BME280;7801;48.124;11.590;2023-02-19T04:51:20;95727.81;;;9.02;97.98
15405;BME280;7801;48.124;11.590;2023-02-19T04:53:46;95715.34;;;9.13;97.79
15405;BME280;7801;48.124;11.590;2023-02-19T04:56:13;95717.91;;;9.23;97.36
15405;BME280;7801;48.124;11.590;2023-02-19T04:58:40;95704.16;;;9.21;97.04
15405;BME280;7801;48.124;11.590;2023-02-19T05:01:06;95732.19;;;9.22;97.24
15405;BME280;7801;48.124;11.590;2023-02-19T05:03:31;95721.62;;;9.22;96.95
15405;BME280;7801;48.124;11.590;2023-02-19T05:06:04;95722.66;;;9.26;96.94
15405;BME280;7801;48.124;11.590;2023-02-19T05:08:30;95724.78;;;9.24;96.43
15405;BME280;7801;48.124;11.590;2023-02-19T05:10:59;95725.31;;;9.26;95.98
15405;BME280;7801;48.124;11.590;2023-02-19T05:13:26;95729.91;;;9.10;96.97
15405;BME280;7801;48.124;11.590;2023-02-19T05:16:01;95732.00;;;9.13;97.24
15405;BME280;7801;48.124;11.590;2023-02-19T05:18:27;95732.72;;;9.24;96.53
15405;BME280;7801;48.124;11.590;2023-02-19T05:20:52;95719.59;;;9.09;96.46
15405;BME280;7801;48.124;11.590;2023-02-19T05:23:19;95720.53;;;9.28;96.16
15405;BME280;7801;48.124;11.590;2023-02-19T05:25:45;95735.13;;;9.20;95.93
15405;BME280;7801;48.124;11.590;2023-02-19T05:28:11;95726.38;;;9.25;96.05
15405;BME280;7801;48.124;11.590;2023-02-19T05:30:48;95722.94;;;9.19;95.89
15405;BME280;7801;48.124;11.590;2023-02-19T05:33:14;95736.97;;;9.20;95.69
15405;BME280;7801;48.124;11.590;2023-02-19T05:35:51;95729.00;;;9.25;95.18
15405;BME280;7801;48.124;11.590;2023-02-19T05:38:18;95730.31;;;9.27;95.12
15405;BME280;7801;48.124;11.590;2023-02-19T05:40:46;95732.69;;;9.29;94.85
15405;BME280;7801;48.124;11.590;2023-02-19T05:43:12;95744.34;;;9.28;94.82
15405;BME280;7801;48.124;11.590;2023-02-19T05:45:38;95751.78;;;9.21;94.96
15405;BME280;7801;48.124;11.590;2023-02-19T05:48:04;95740.91;;;9.27;95.06
15405;BME280;7801;48.124;11.590;2023-02-19T05:50:32;95749.56;;;9.38;93.93
15405;BME280;7801;48.124;11.590;2023-02-19T05:52:59;95741.31;;;9.50;92.71
15405;BME280;7801;48.124;11.590;2023-02-19T05:55:25;95755.84;;;9.52;92.52
15405;BME280;7801;48.124;11.590;2023-02-19T05:57:51;95763.78;;;9.52;92.50
15405;BME280;7801;48.124;11.590;2023-02-19T06:00:18;95770.09;;;9.56;92.34
15405;BME280;7801;48.124;11.590;2023-02-19T06:02:45;95759.50;;;9.56;92.20
15405;BME280;7801;48.124;11.590;2023-02-19T06:05:11;95765.19;;;9.40;92.66
15405;BME280;7801;48.124;11.590;2023-02-19T06:07:37;95766.84;;;9.30;92.66
15405;BME280;7801;48.124;11.590;2023-02-19T06:10:09;95772.06;;;9.41;92.93
15405;BME280;7801;48.124;11.590;2023-02-19T06:12:35;95766.16;;;9.54;91.83
15405;BME280;7801;48.124;11.590;2023-02-19T06:15:02;95769.38;;;9.46;92.11
15405;BME280;7801;48.124;11.590;2023-02-19T06:17:28;95769.88;;;9.53;91.74
15405;BME280;7801;48.124;11.590;2023-02-19T06:19:54;95766.44;;;9.52;91.14
15405;BME280;7801;48.124;11.590;2023-02-19T06:22:19;95765.84;;;9.60;91.20
15405;BME280;7801;48.124;11.590;2023-02-19T06:24:45;95770.84;;;9.67;90.45
15405;BME280;7801;48.124;11.590;2023-02-19T06:27:11;95775.31;;;9.72;90.44
15405;BME280;7801;48.124;11.590;2023-02-19T06:29:36;95778.13;;;9.85;89.66
15405;BME280;7801;48.124;11.590;2023-02-19T06:32:03;95782.22;;;9.68;90.07
15405;BME280;7801;48.124;11.590;2023-02-19T06:34:28;95784.91;;;9.62;90.34
15405;BME280;7801;48.124;11.590;2023-02-19T06:36:54;95784.88;;;9.68;90.21
15405;BME280;7801;48.124;11.590;2023-02-19T06:39:19;95787.78;;;9.71;90.36
15405;BME280;7801;48.124;11.590;2023-02-19T06:41:44;95793.47;;;9.88;89.82
15405;BME280;7801;48.124;11.590;2023-02-19T06:44:10;95792.13;;;9.91;89.07
15405;BME280;7801;48.124;11.590;2023-02-19T06:46:35;95798.38;;;9.71;89.40
15405;BME280;7801;48.124;11.590;2023-02-19T06:49:03;95800.19;;;9.76;89.60
15405;BME280;7801;48.124;11.590;2023-02-19T06:51:29;95811.19;;;9.93;89.33
15405;BME280;7801;48.124;11.590;2023-02-19T06:53:58;95810.72;;;9.86;89.33
15405;BME280;7801;48.124;11.590;2023-02-19T06:56:29;95807.50;;;9.89;89.16
15405;BME280;7801;48.124;11.590;2023-02-19T06:58:57;95800.87;;;9.91;89.07
15405;BME280;7801;48.124;11.590;2023-02-19T07:01:27;95815.44;;;9.94;88.41
15405;BME280;7801;48.124;11.590;2023-02-19T07:03:53;95811.19;;;9.93;88.80
15405;BME280;7801;48.124;11.590;2023-02-19T07:06:20;95815.16;;;9.95;88.89
15405;BME280;7801;48.124;11.590;2023-02-19T07:08:46;95831.00;;;10.00;88.45
15405;BME280;7801;48.124;11.590;2023-02-19T07:11:11;95828.03;;;10.07;88.60
15405;BME280;7801;48.124;11.590;2023-02-19T07:13:37;95836.97;;;10.21;87.99
15405;BME280;7801;48.124;11.590;2023-02-19T07:16:06;95838.06;;;10.15;88.04
15405;BME280;7801;48.124;11.590;2023-02-19T07:18:36;95853.66;;;10.22;87.83
15405;BME280;7801;48.124;11.590;2023-02-19T07:21:03;95856.28;;;10.27;87.96
15405;BME280;7801;48.124;11.590;2023-02-19T07:23:29;95859.28;;;10.15;88.52
15405;BME280;7801;48.124;11.590;2023-02-19T07:25:54;95861.13;;;10.15;88.51
15405;BME280;7801;48.124;11.590;2023-02-19T07:28:19;95857.47;;;10.06;89.33
15405;BME280;7801;48.124;11.590;2023-02-19T07:30:45;95859.84;;;10.07;89.85
15405;BME280;7801;48.124;11.590;2023-02-19T07:33:10;95855.34;;;10.08;90.13
15405;BME280;7801;48.124;11.590;2023-02-19T07:35:36;95864.34;;;10.07;90.10
15405;BME280;7801;48.124;11.590;2023-02-19T07:38:01;95856.69;;;10.05;90.08
15405;BME280;7801;48.124;11.590;2023-02-19T07:40:26;95868.84;;;10.11;89.94
15405;BME280;7801;48.124;11.590;2023-02-19T07:42:51;95869.53;;;9.83;91.34
15405;BME280;7801;48.124;11.590;2023-02-19T07:45:17;95870.84;;;9.90;91.40
15405;BME280;7801;48.124;11.590;2023-02-19T07:47:42;95867.81;;;10.07;91.03
15405;BME280;7801;48.124;11.590;2023-02-19T07:50:08;95877.47;;;9.88;91.64
15405;BME280;7801;48.124;11.590;2023-02-19T07:52:33;95884.22;;;10.09;91.05
15405;BME280;7801;48.124;11.590;2023-02-19T07:54:58;95890.38;;;9.99;90.80
15405;BME280;7801;48.124;11.590;2023-02-19T07:57:29;95897.75;;;10.08;90.91
15405;BME280;7801;48.124;11.590;2023-02-19T07:59:55;95901.22;;;10.03;90.33
15405;BME280;7801;48.124;11.590;2023-02-19T08:02:20;95895.31;;;10.16;90.11
15405;BME280;7801;48.124;11.590;2023-02-19T08:05:05;95898.19;;;10.25;89.44
15405;BME280;7801;48.124;11.590;2023-02-19T08:07:34;95908.06;;;10.14;89.81
15405;BME280;7801;48.124;11.590;2023-02-19T08:10:01;95909.66;;;10.10;89.56
15405;BME280;7801;48.124;11.590;2023-02-19T08:12:54;95916.00;;;10.14;89.40
15405;BME280;7801;48.124;11.590;2023-02-19T08:15:38;95911.78;;;10.13;90.60
15405;BME280;7801;48.124;11.590;2023-02-19T08:18:04;95924.47;;;10.16;90.66
15405;BME280;7801;48.124;11.590;2023-02-19T08:20:29;95923.69;;;10.16;90.80
15405;BME280;7801;48.124;11.590;2023-02-19T08:22:54;95926.56;;;10.24;90.71
15405;BME280;7801;48.124;11.590;2023-02-19T08:25:20;95927.94;;;10.17;90.66
15405;BME280;7801;48.124;11.590;2023-02-19T08:27:45;95934.81;;;10.18;90.51
15405;BME280;7801;48.124;11.590;2023-02-19T08:30:10;95937.06;;;10.40;89.96
15405;BME280;7801;48.124;11.590;2023-02-19T08:32:36;95938.63;;;10.41;89.06
15405;BME280;7801;48.124;11.590;2023-02-19T08:35:01;95932.69;;;10.20;89.53
15405;BME280;7801;48.124;11.590;2023-02-19T08:37:27;95933.19;;;10.22;89.90
15405;BME280;7801;48.124;11.590;2023-02-19T08:39:52;95954.63;;;10.30;89.04
15405;BME280;7801;48.124;11.590;2023-02-19T08:42:17;95948.69;;;10.44;88.14
15405;BME280;7801;48.124;11.590;2023-02-19T08:44:43;95950.03;;;10.41;87.55
15405;BME280;7801;48.124;11.590;2023-02-19T08:47:08;95945.06;;;10.35;88.11
15405;BME280;7801;48.124;11.590;2023-02-19T08:49:33;95953.81;;;10.35;88.37
15405;BME280;7801;48.124;11.590;2023-02-19T08:51:59;95950.41;;;10.29;88.65
15405;BME280;7801;48.124;11.590;2023-02-19T08:54:24;95958.88;;;10.31;88.78
15405;BME280;7801;48.124;11.590;2023-02-19T08:56:49;95962.63;;;10.25;89.22
15405;BME280;7801;48.124;11.590;2023-02-19T08:59:15;95965.75;;;10.38;87.93
15405;BME280;7801;48.124;11.590;2023-02-19T09:01:41;95963.34;;;10.36;88.20
15405;BME280;7801;48.124;11.590;2023-02-19T09:04:10;95973.12;;;10.41;88.54
15405;BME280;7801;48.124;11.590;2023-02-19T09:06:35;95962.88;;;10.24;89.31
15405;BME280;7801;48.124;11.590;2023-02-19T09:09:01;95983.03;;;10.25;89.03
15405;BME280;7801;48.124;11.590;2023-02-19T09:11:26;95978.81;;;10.19;89.36
15405;BME280;7801;48.124;11.590;2023-02-19T09:13:54;95972.16;;;10.26;88.71
15405;BME280;7801;48.124;11.590;2023-02-19T09:16:20;95984.31;;;10.32;87.11
15405;BME280;7801;48.124;11.590;2023-02-19T09:18:45;95983.00;;;10.35;87.23
15405;BME280;7801;48.124;11.590;2023-02-19T09:21:11;95991.53;;;10.22;87.99
15405;BME280;7801;48.124;11.590;2023-02-19T09:23:36;95988.41;;;10.10;89.16
15405;BME280;7801;48.124;11.590;2023-02-19T09:26:04;95986.22;;;10.22;89.20
15405;BME280;7801;48.124;11.590;2023-02-19T09:28:31;95988.66;;;10.08;88.27
15405;BME280;7801;48.124;11.590;2023-02-19T09:31:05;95996.84;;;10.22;88.56
15405;BME280;7801;48.124;11.590;2023-02-19T09:33:31;95993.41;;;10.21;88.12
15405;BME280;7801;48.124;11.590;2023-02-19T09:35:59;95987.56;;;10.19;84.86
15405;BME280;7801;48.124;11.590;2023-02-19T09:38:25;95978.56;;;10.20;85.40
15405;BME280;7801;48.124;11.590;2023-02-19T09:40:51;95970.06;;;10.23;83.72
15405;BME280;7801;48.124;11.590;2023-02-19T09:43:19;95983.78;;;10.36;84.54
15405;BME280;7801;48.124;11.590;2023-02-19T09:45:46;95978.38;;;10.51;83.92
15405;BME280;7801;48.124;11.590;2023-02-19T09:48:12;95987.16;;;10.41;83.92
15405;BME280;7801;48.124;11.590;2023-02-19T09:50:41;96000.00;;;10.29;81.61
15405;BME280;7801;48.124;11.590;2023-02-19T09:53:20;96003.22;;;10.16;79.33
15405;BME280;7801;48.124;11.590;2023-02-19T09:55:49;96025.81;;;9.98;79.23
15405;BME280;7801;48.124;11.590;2023-02-19T10:00:50;96001.50;;;9.86;79.34
15405;BME280;7801;48.124;11.590;2023-02-19T10:03:29;96002.53;;;9.90;79.22
15405;BME280;7801;48.124;11.590;2023-02-19T10:06:00;96019.75;;;9.97;77.93
15405;BME280;7801;48.124;11.590;2023-02-19T10:08:31;96006.78;;;9.96;78.40
15405;BME280;7801;48.124;11.590;2023-02-19T10:10:57;96003.06;;;9.97;78.10
15405;BME280;7801;48.124;11.590;2023-02-19T10:13:30;95997.75;;;9.97;78.22
15405;BME280;7801;48.124;11.590;2023-02-19T10:15:59;95986.03;;;10.03;77.40
15405;BME280;7801;48.124;11.590;2023-02-19T10:18:28;96006.78;;;9.96;75.61
15405;BME280;7801;48.124;11.590;2023-02-19T10:20:56;95990.88;;;9.96;76.13
15405;BME280;7801;48.124;11.590;2023-02-19T10:23:23;95991.87;;;10.05;76.94
15405;BME280;7801;48.124;11.590;2023-02-19T10:25:52;95986.78;;;10.14;74.42
15405;BME280;7801;48.124;11.590;2023-02-19T10:28:21;95993.66;;;10.20;73.53
15405;BME280;7801;48.124;11.590;2023-02-19T10:30:51;95999.72;;;10.30;72.67
15405;BME280;7801;48.124;11.590;2023-02-19T10:33:18;96012.41;;;10.39;72.43
15405;BME280;7801;48.124;11.590;2023-02-19T10:35:59;96010.25;;;10.41;70.86
15405;BME280;7801;48.124;11.590;2023-02-19T10:40:58;96010.19;;;10.56;69.85
15405;BME280;7801;48.124;11.590;2023-02-19T10:43:26;96037.44;;;10.61;69.94
15405;BME280;7801;48.124;11.590;2023-02-19T10:45:58;96022.03;;;10.63;69.27
15405;BME280;7801;48.124;11.590;2023-02-19T10:48:31;96011.09;;;10.75;68.46
15405;BME280;7801;48.124;11.590;2023-02-19T10:51:05;96013.22;;;10.78;67.76
15405;BME280;7801;48.124;11.590;2023-02-19T10:53:41;96010.97;;;10.90;68.86
15405;BME280;7801;48.124;11.590;2023-02-19T10:56:10;96008.09;;;10.82;67.65
15405;BME280;7801;48.124;11.590;2023-02-19T10:58:37;96009.91;;;10.91;67.90
15405;BME280;7801;48.124;11.590;2023-02-19T11:01:14;96005.66;;;10.90;68.87
15405;BME280;7801;48.124;11.590;2023-02-19T11:03:41;95993.94;;;10.96;65.98
15405;BME280;7801;48.124;11.590;2023-02-19T11:06:09;95994.66;;;11.02;65.81
15405;BME280;7801;48.124;11.590;2023-02-19T11:08:53;96009.63;;;10.93;65.74
15405;BME280;7801;48.124;11.590;2023-02-19T11:13:55;95999.19;;;11.01;65.65
15405;BME280;7801;48.124;11.590;2023-02-19T11:16:23;95990.75;;;10.99;65.36
15405;BME280;7801;48.124;11.590;2023-02-19T11:18:53;95994.88;;;11.11;66.12
15405;BME280;7801;48.124;11.590;2023-02-19T11:21:30;95992.69;;;11.18;65.10
15405;BME280;7801;48.124;11.590;2023-02-19T11:23:59;95990.56;;;11.20;66.65
15405;BME280;7801;48.124;11.590;2023-02-19T11:26:32;95996.59;;;11.25;64.64
15405;BME280;7801;48.124;11.590;2023-02-19T11:29:15;95994.72;;;11.26;65.25
15405;BME280;7801;48.124;11.590;2023-02-19T11:31:41;95998.97;;;11.27;64.10
15405;BME280;7801;48.124;11.590;2023-02-19T11:36:38;96000.59;;;11.23;64.74
15405;BME280;7801;48.124;11.590;2023-02-19T11:49:57;96003.75;;;11.25;65.55
15405;BME280;7801;48.124;11.590;2023-02-19T11:52:40;95997.34;;;11.31;66.63
15405;BME280;7801;48.124;11.590;2023-02-19T11:55:14;96010.62;;;11.31;68.23
15405;BME280;7801;48.124;11.590;2023-02-19T11:57:45;96011.88;;;11.10;70.57
15405;BME280;7801;48.124;11.590;2023-02-19T12:05:33;96026.94;;;10.85;70.02
15405;BME280;7801;48.124;11.590;2023-02-19T12:11:04;96025.88;;;10.86;68.46
15405;BME280;7801;48.124;11.590;2023-02-19T12:16:46;96005.22;;;11.12;65.06
15405;BME280;7801;48.124;11.590;2023-02-19T12:22:29;96004.47;;;11.07;64.45
15405;BME280;7801;48.124;11.590;2023-02-19T12:28:22;96014.97;;;11.22;62.92
15405;BME280;7801;48.124;11.590;2023-02-19T12:31:06;96012.88;;;11.19;63.28
15405;BME280;7801;48.124;11.590;2023-02-19T12:33:55;96018.69;;;11.21;63.23
15405;BME280;7801;48.124;11.590;2023-02-19T12:42:27;96018.53;;;11.36;63.61
15405;BME280;7801;48.124;11.590;2023-02-19T12:45:00;96034.12;;;11.19;64.45
15405;BME280;7801;48.124;11.590;2023-02-19T12:47:33;96046.03;;;11.21;64.21
15405;BME280;7801;48.124;11.590;2023-02-19T12:50:19;96056.44;;;11.18;64.75
15405;BME280;7801;48.124;11.590;2023-02-19T12:52:50;96059.44;;;11.06;66.33
15405;BME280;7801;48.124;11.590;2023-02-19T12:55:29;96063.34;;;10.80;67.37
15405;BME280;7801;48.124;11.590;2023-02-19T12:57:59;96076.44;;;10.61;69.51
15405;BME280;7801;48.124;11.590;2023-02-19T13:00:43;96071.72;;;10.58;68.38
15405;BME280;7801;48.124;11.590;2023-02-19T13:03:17;96072.25;;;10.55;68.10
15405;BME280;7801;48.124;11.590;2023-02-19T13:05:49;96070.69;;;10.54;68.06
15405;BME280;7801;48.124;11.590;2023-02-19T13:08:31;96059.03;;;10.50;67.90
15405;BME280;7801;48.124;11.590;2023-02-19T13:11:13;96070.97;;;10.47;67.04
15405;BME280;7801;48.124;11.590;2023-02-19T13:13:51;96064.31;;;10.50;66.30
15405;BME280;7801;48.124;11.590;2023-02-19T13:16:20;96069.66;;;10.45;66.41
15405;BME280;7801;48.124;11.590;2023-02-19T13:18:51;96058.91;;;10.70;65.42
15405;BME280;7801;48.124;11.590;2023-02-19T13:21:20;96080.16;;;10.60;65.56
15405;BME280;7801;48.124;11.590;2023-02-19T13:24:08;96070.69;;;10.54;65.31
15405;BME280;7801;48.124;11.590;2023-02-19T13:26:50;96070.13;;;10.57;66.58
15405;BME280;7801;48.124;11.590;2023-02-19T13:37:04;96069.13;;;10.87;64.85
15405;BME280;7801;48.124;11.590;2023-02-19T13:39:30;96066.44;;;10.92;64.99
15405;BME280;7801;48.124;11.590;2023-02-19T13:41:56;96051.69;;;10.76;65.00
15405;BME280;7801;48.124;11.590;2023-02-19T13:44:31;96035.53;;;10.72;65.51
15405;BME280;7801;48.124;11.590;2023-02-19T13:46:57;96029.19;;;10.68;64.54
15405;BME280;7801;48.124;11.590;2023-02-19T13:52:02;96039.47;;;10.36;64.65
15405;BME280;7801;48.124;11.590;2023-02-19T13:54:33;96052.91;;;10.54;64.81
15405;BME280;7801;48.124;11.590;2023-02-19T13:59:57;96058.50;;;10.48;66.65
15405;BME280;7801;48.124;11.590;2023-02-19T14:02:30;96064.34;;;10.45;69.21
15405;BME280;7801;48.124;11.590;2023-02-19T14:04:58;96065.41;;;10.44;67.86
15405;BME280;7801;48.124;11.590;2023-02-19T14:09:55;96054.31;;;10.37;67.26
15405;BME280;7801;48.124;11.590;2023-02-19T14:12:33;96050.09;;;10.30;67.56
15405;BME280;7801;48.124;11.590;2023-02-19T14:21:15;96070.75;;;10.39;67.57
15405;BME280;7801;48.124;11.590;2023-02-19T14:23:42;96067.31;;;10.38;67.96
15405;BME280;7801;48.124;11.590;2023-02-19T14:26:08;96050.34;;;10.34;68.87
15405;BME280;7801;48.124;11.590;2023-02-19T14:28:42;96054.09;;;10.28;68.72
15405;BME280;7801;48.124;11.590;2023-02-19T14:31:14;96058.06;;;10.25;68.14
15405;BME280;7801;48.124;11.590;2023-02-19T14:33:54;96052.00;;;10.15;69.02
15405;BME280;7801;48.124;11.590;2023-02-19T14:39:18;96075.31;;;10.28;68.63
15405;BME280;7801;48.124;11.590;2023-02-19T14:41:52;96079.81;;;10.32;68.72
15405;BME280;7801;48.124;11.590;2023-02-19T14:44:24;96077.47;;;10.16;68.70
15405;BME280;7801;48.124;11.590;2023-02-19T14:47:07;96074.25;;;10.24;69.17